ニューヨーク/JFK の空港の天気 - METARとTAF

ジョン・F・ケネディ国際空港 ( KJFK / JFK ) - アメリカ ニューヨーク州ニューヨーク
飛行場実況気象(Metar)
観測時間05/31 06:51 EDT (05/31 10:51 UTC)
風向・風速北 7m/s 瞬間風速10m/s
視程10km以上
天気現象
少しの雲 雲底高度 1220m
少しの雲 雲底高度 7620m
気温14.4℃
湿度49%
気圧1017.2hPa
METARKJFK 311051Z 35014G20KT 10SM FEW040 FEW250 14/04 A3004 RMK AO2 SLP172 T01440039
過去の天気等 Google飛行場航空写真 Wunderground天気予報

過去48時間のMETAR

飛行場予報(TAF)
発表時間: 5/31 04:39 EDT (5/31 08:39 UTC)
予報対象時間: 31日5時 EDT ~ 1日8時 EDT
風向・風速北北西 7m/s 瞬間風速 11m/s
視程10km以上
少しの雲 雲底高度 1520m
31日8時 EDT から
風向・風速北北西 8m/s 瞬間風速 12m/s
視程10km以上
少しの雲 雲底高度 1520m
31日13時 EDT から
風向・風速北西 7m/s 瞬間風速 10m/s
視程10km以上
少しの雲 雲底高度 1520m
1日0時 EDT から
風向・風速北北西 6m/s
視程10km以上
少しの雲 雲底高度 2440m
1日3時 EDT から
風向・風速北西 5m/s
視程10km以上
少しの雲 雲底高度 2440m
KJFK 310839Z 3109/0112 33014G21KT P6SM FEW050
FM311200 33016G24KT P6SM FEW050
FM311700 31014G20KT P6SM FEW050
FM010400 34012KT P6SM FEW080
FM010700 31009KT P6SM FEW080